Time;durP1;ratioP1;P1;durP2;ratioP2;P2;SDS_P1;SDS_P2;PMS_P1;PMS_P2;Temp;Humidity;BMP_temperature;BMP_pressure;BME280_temperature;BME280_humidity;BME280_pressure;Samples;Min_cycle;Max_cycle;Signal;HPM_P1;HPM_P2
2022/03/29 00:00:08;;;;;;;56.37;33.93;;;;;;;-145.18;100.00;46650.63;4993255;28;20085;-64
2022/03/29 00:02:33;;;;;;;58.70;32.03;;;;;;;-145.18;100.00;46648.69;4993026;28;20086;-64
2022/03/29 00:05:04;;;;;;;56.93;32.60;;;;;;;-145.18;100.00;46646.72;4993399;28;20267;-64
2022/03/29 00:07:30;;;;;;;54.80;32.63;;;;;;;-145.18;100.00;46646.72;4992895;28;20046;-64
2022/03/29 00:09:55;;;;;;;62.90;34.53;;;;;;;-145.18;100.00;46644.78;4992820;28;20275;-64
2022/03/29 00:12:21;;;;;;;55.50;33.00;;;;;;;-145.18;100.00;46648.69;4992861;28;20272;-64
2022/03/29 00:14:46;;;;;;;58.07;34.23;;;;;;;-145.18;100.00;46644.78;4993227;28;20072;-64
2022/03/29 00:17:11;;;;;;;57.73;32.10;;;;;;;-145.18;100.00;46648.69;4992504;28;20037;-64
2022/03/29 00:19:37;;;;;;;58.53;33.43;;;;;;;-145.18;100.00;46644.78;4993536;28;20129;-64
2022/03/29 00:22:02;;;;;;;58.17;34.13;;;;;;;-145.18;100.00;46644.78;4992388;28;20117;-64
2022/03/29 00:24:28;;;;;;;57.57;33.07;;;;;;;-145.18;100.00;46644.78;4993251;28;20046;-64
2022/03/29 00:26:53;;;;;;;61.67;33.53;;;;;;;-145.18;100.00;46646.72;4975098;28;20049;-64
2022/03/29 00:29:19;;;;;;;62.63;33.60;;;;;;;-145.18;100.00;46646.72;4992995;28;20385;-64
2022/03/29 00:31:44;;;;;;;51.87;32.17;;;;;;;-145.18;100.00;46648.69;4992589;28;20117;-64
2022/03/29 00:34:10;;;;;;;62.10;34.37;;;;;;;-145.18;100.00;46646.72;4992840;28;20035;-64
2022/03/29 00:36:35;;;;;;;56.63;33.57;;;;;;;-145.18;100.00;46654.53;4992621;28;20447;-64
2022/03/29 00:39:00;;;;;;;61.77;34.30;;;;;;;-145.18;100.00;46646.72;4992590;28;20045;-64
2022/03/29 00:41:26;;;;;;;62.27;33.90;;;;;;;-145.18;100.00;46648.69;4992276;28;20565;-64
2022/03/29 00:43:51;;;;;;;62.00;34.83;;;;;;;-145.18;100.00;46650.63;4992954;28;20036;-64
2022/03/29 00:46:17;;;;;;;61.17;33.67;;;;;;;-145.18;100.00;46646.72;4992222;28;20617;-64
2022/03/29 00:48:43;;;;;;;60.67;34.77;;;;;;;-145.18;100.00;46644.78;4992796;28;20133;-64
2022/03/29 00:51:09;;;;;;;68.20;35.83;;;;;;;-145.18;100.00;46642.81;4991876;28;20034;-64
2022/03/29 00:53:35;;;;;;;61.93;34.10;;;;;;;-145.18;100.00;46648.69;4992435;28;20035;-64
2022/03/29 00:56:02;;;;;;;61.43;34.23;;;;;;;-145.18;100.00;46642.81;4992387;28;20275;-64
2022/03/29 00:58:28;;;;;;;62.03;33.87;;;;;;;-145.18;100.00;46646.72;4992342;28;20283;-64
2022/03/29 01:00:55;;;;;;;70.07;34.83;;;;;;;-145.18;100.00;46646.72;4992552;28;20641;-64
2022/03/29 01:03:20;;;;;;;64.40;34.70;;;;;;;-145.18;100.00;46648.69;4991308;28;20566;-64
2022/03/29 01:05:46;;;;;;;65.60;36.00;;;;;;;-145.18;100.00;46644.78;4992265;28;20363;-64
2022/03/29 01:08:11;;;;;;;64.03;34.37;;;;;;;-145.18;100.00;46646.72;4991564;28;20376;-64
2022/03/29 01:10:37;;;;;;;69.27;34.70;;;;;;;-145.18;100.00;46644.78;4992142;28;20070;-64
2022/03/29 01:13:04;;;;;;;71.00;35.53;;;;;;;-145.18;100.00;46646.72;4991184;28;20125;-64
2022/03/29 01:15:34;;;;;;;66.20;34.80;;;;;;;-145.18;100.00;46644.78;4992197;28;20467;-64
2022/03/29 01:18:01;;;;;;;72.47;37.10;;;;;;;-145.18;100.00;46644.78;4991570;28;20298;-64
2022/03/29 01:20:29;;;;;;;68.93;35.93;;;;;;;-145.18;100.00;46644.78;4992031;28;20377;-64
2022/03/29 01:22:56;;;;;;;69.83;35.93;;;;;;;-145.18;100.00;46644.78;4991278;28;20268;-64
2022/03/29 01:25:36;;;;;;;76.20;37.20;;;;;;;-145.18;100.00;46646.72;4991873;28;20291;-64
2022/03/29 01:28:03;;;;;;;67.23;35.77;;;;;;;-145.18;100.00;46646.72;4991170;28;20693;-64
2022/03/29 01:30:29;;;;;;;71.07;36.87;;;;;;;-145.18;100.00;46642.81;4991737;28;20275;-64
2022/03/29 01:32:56;;;;;;;78.63;38.40;;;;;;;-145.18;100.00;46640.88;4991357;28;20276;-64
2022/03/29 01:35:23;;;;;;;70.23;37.23;;;;;;;-145.18;100.00;46644.78;4974626;28;20042;-64
2022/03/29 01:37:50;;;;;;;68.00;37.17;;;;;;;-145.18;100.00;46642.81;4972036;28;20641;-64
2022/03/29 01:40:19;;;;;;;65.43;36.07;;;;;;;-145.18;100.00;46644.78;4972271;28;20321;-64
2022/03/29 01:43:11;;;;;;;67.70;36.57;;;;;;;-145.18;100.00;46660.41;4971372;28;20411;-64
2022/03/29 01:45:37;;;;;;;69.70;37.03;;;;;;;-145.18;100.00;46642.81;4969572;28;20642;-64
2022/03/29 01:48:02;;;;;;;69.87;35.47;;;;;;;-145.18;100.00;46640.88;4971494;28;20292;-64
2022/03/29 01:50:28;;;;;;;73.60;38.10;;;;;;;-145.18;100.00;46642.81;4972200;28;20511;-64
2022/03/29 01:52:53;;;;;;;61.67;35.77;;;;;;;-145.18;100.00;46642.81;4971739;28;20030;-64
2022/03/29 01:55:21;;;;;;;70.87;35.70;;;;;;;-145.18;100.00;46638.91;4972042;28;20118;-64
2022/03/29 01:57:47;;;;;;;64.63;34.93;;;;;;;-145.18;100.00;46638.91;4971822;28;20035;-64
2022/03/29 02:03:06;;;;;;;66.67;33.03;;;;;;;-145.18;100.00;46644.78;5141062;23;20318;-64
2022/03/29 02:05:32;;;;;;;67.63;36.43;;;;;;;-145.18;100.00;46638.91;4987806;28;20322;-64
2022/03/29 02:07:58;;;;;;;70.60;37.37;;;;;;;-145.18;100.00;46638.91;4990909;28;20304;-64
2022/03/29 02:10:24;;;;;;;68.13;36.70;;;;;;;-145.18;100.00;46642.81;4991511;28;20058;-64
2022/03/29 02:12:51;;;;;;;71.53;37.27;;;;;;;-145.18;100.00;46642.81;4990689;28;20326;-64
2022/03/29 02:15:17;;;;;;;76.37;37.77;;;;;;;-145.18;100.00;46640.88;4991495;28;20121;-64
2022/03/29 02:17:44;;;;;;;71.83;37.37;;;;;;;-145.18;100.00;46676.03;4991320;28;20272;-64
2022/03/29 02:20:10;;;;;;;75.03;36.53;;;;;;;-145.18;100.00;46642.81;4991405;28;20768;-64
2022/03/29 02:22:35;;;;;;;78.50;39.03;;;;;;;-145.18;100.00;46638.91;4990939;28;20620;-64
2022/03/29 02:25:01;;;;;;;82.13;39.77;;;;;;;-145.18;100.00;46677.97;4991296;28;20279;-64
2022/03/29 02:27:26;;;;;;;74.80;38.33;;;;;;;-145.18;100.00;46660.41;4990635;28;20498;-64
2022/03/29 02:29:53;;;;;;;79.27;38.20;;;;;;;-145.18;100.00;46638.91;4991112;28;20030;-64
2022/03/29 02:32:19;;;;;;;76.23;38.67;;;;;;;-145.18;100.00;46676.03;4990655;28;20049;-64
2022/03/29 02:34:47;;;;;;;79.97;39.67;;;;;;;-145.18;100.00;46660.41;4991017;28;20311;-64
2022/03/29 02:37:13;;;;;;;80.97;37.93;;;;;;;-145.18;100.00;46676.03;4990933;28;20318;-64
2022/03/29 02:39:40;;;;;;;82.93;40.87;;;;;;;-145.18;100.00;46640.88;4991277;28;20268;-64
2022/03/29 02:42:06;;;;;;;76.47;38.97;;;;;;;-145.18;100.00;46638.91;4990252;28;20280;-64
2022/03/29 02:44:31;;;;;;;85.30;39.40;;;;;;;-145.18;100.00;46640.88;4991423;28;20272;-64
2022/03/29 02:46:57;;;;;;;74.47;38.97;;;;;;;-145.18;100.00;46660.41;4990459;28;20303;-64
2022/03/29 02:49:24;;;;;;;83.97;41.03;;;;;;;-145.18;100.00;46638.91;4991190;28;20115;-64
2022/03/29 02:51:50;;;;;;;78.97;39.40;;;;;;;-145.18;100.00;46640.88;4990140;28;20034;-64
2022/03/29 02:54:15;;;;;;;81.37;39.53;;;;;;;-145.18;100.00;46677.97;4990224;28;20293;-64
2022/03/29 02:56:41;;;;;;;79.03;39.67;;;;;;;-145.18;100.00;46660.41;4991050;28;20026;-64
2022/03/29 02:59:06;;;;;;;82.70;41.27;;;;;;;-145.18;100.00;46642.81;4990395;28;20053;-64
2022/03/29 03:01:32;;;;;;;87.03;39.80;;;;;;;-145.18;100.00;46640.88;4991046;28;20039;-64
2022/03/29 03:03:57;;;;;;;84.10;40.67;;;;;;;-145.18;100.00;46677.97;4990115;28;20058;-64
2022/03/29 03:06:24;;;;;;;82.63;40.17;;;;;;;-145.18;100.00;46638.91;4973361;28;20117;-64
2022/03/29 03:08:50;;;;;;;77.53;39.27;;;;;;;-145.18;100.00;46638.91;4990326;28;20564;-64
2022/03/29 03:11:15;;;;;;;90.33;42.17;;;;;;;-145.18;100.00;46677.97;4990948;28;20268;-64
2022/03/29 03:13:40;;;;;;;80.70;40.67;;;;;;;-145.18;100.00;46638.91;4990582;28;20030;-64
2022/03/29 03:16:06;;;;;;;91.13;41.27;;;;;;;-145.18;100.00;46640.88;4989843;28;20032;-64
2022/03/29 03:18:32;;;;;;;92.90;40.93;;;;;;;-145.18;100.00;46677.97;4990490;28;20089;-64
2022/03/29 03:20:58;;;;;;;81.63;39.87;;;;;;;-145.18;100.00;46660.41;4990522;28;20037;-64
2022/03/29 03:23:24;;;;;;;80.43;40.03;;;;;;;-145.18;100.00;46660.41;4990245;28;20272;-64
2022/03/29 03:25:50;;;;;;;104.17;41.87;;;;;;;-145.18;100.00;46638.91;4990729;28;20088;-64
2022/03/29 03:28:16;;;;;;;95.27;42.17;;;;;;;-145.18;100.00;46638.91;4973273;28;20264;-64
2022/03/29 03:30:41;;;;;;;90.97;41.20;;;;;;;-145.18;100.00;46677.97;4990750;28;20260;-64
2022/03/29 03:33:07;;;;;;;85.83;39.57;;;;;;;-145.18;100.00;46636.94;4989946;28;20058;-64
2022/03/29 03:35:32;;;;;;;93.97;42.47;;;;;;;-145.18;100.00;46642.81;4990774;28;20038;-64
2022/03/29 03:37:57;;;;;;;94.53;40.40;;;;;;;-145.18;100.00;46638.91;4990264;28;20200;-64
2022/03/29 03:40:23;;;;;;;100.87;42.27;;;;;;;-145.18;100.00;46636.94;4990587;28;20041;-64
2022/03/29 03:42:48;;;;;;;94.50;41.73;;;;;;;-145.18;100.00;46677.97;4989958;28;20041;-64
2022/03/29 03:45:14;;;;;;;106.47;40.27;;;;;;;-145.18;100.00;46660.41;4990482;28;20039;-64
2022/03/29 03:47:39;;;;;;;91.90;40.40;;;;;;;-145.18;100.00;46660.41;4993355;28;20475;-64
2022/03/29 03:50:06;;;;;;;98.10;37.93;;;;;;;-145.18;100.00;46677.97;4976076;28;20392;-64
2022/03/29 03:52:31;;;;;;;95.97;41.17;;;;;;;-145.18;100.00;46638.91;4993553;28;20062;-64
2022/03/29 03:54:57;;;;;;;101.73;42.90;;;;;;;-145.18;100.00;46660.41;4993644;28;20327;-64
2022/03/29 03:57:23;;;;;;;98.53;39.57;;;;;;;-145.18;100.00;46660.41;4993540;28;20046;-64
2022/03/29 03:59:50;;;;;;;96.30;41.90;;;;;;;-145.18;100.00;46638.91;4976253;28;20038;-64
2022/03/29 04:02:15;;;;;;;105.63;43.33;;;;;;;-145.18;100.00;46638.91;4992294;28;20047;-63
2022/03/29 04:04:41;;;;;;;106.03;44.13;;;;;;;-145.18;100.00;46638.91;4957209;28;20296;-64
2022/03/29 04:07:06;;;;;;;111.60;42.93;;;;;;;-145.18;100.00;46660.41;4973721;28;20093;-64
2022/03/29 04:09:35;;;;;;;121.13;42.13;;;;;;;-145.18;100.00;46676.03;4974284;28;20031;-64
2022/03/29 04:12:05;;;;;;;119.50;41.73;;;;;;;-145.18;100.00;46660.41;4973796;28;20043;-64
2022/03/29 04:14:30;;;;;;;122.77;39.13;;;;;;;-145.18;100.00;46660.41;4974433;28;20276;-64
2022/03/29 04:16:56;;;;;;;120.17;38.70;;;;;;;-145.18;100.00;46676.03;4974254;28;20265;-64
2022/03/29 04:19:21;;;;;;;121.73;41.37;;;;;;;-145.18;100.00;46642.81;4973788;28;20050;-64
2022/03/29 04:21:47;;;;;;;115.17;38.70;;;;;;;-145.18;100.00;46660.41;4973437;28;20038;-64
2022/03/29 04:24:13;;;;;;;131.07;41.43;;;;;;;-145.18;100.00;46635.00;4973894;28;20095;-64
2022/03/29 04:26:38;;;;;;;137.93;40.13;;;;;;;-145.18;100.00;46660.41;4973987;28;20391;-64
2022/03/29 04:29:04;;;;;;;140.00;40.50;;;;;;;-145.18;100.00;46635.00;4969482;28;20028;-64
2022/03/29 04:31:30;;;;;;;155.00;42.03;;;;;;;-145.18;100.00;46635.00;4953965;29;20031;-64
2022/03/29 04:33:55;;;;;;;145.57;41.17;;;;;;;-145.18;100.00;46635.00;4953098;29;20484;-64
2022/03/29 04:36:21;;;;;;;226.17;44.87;;;;;;;-145.18;100.00;46636.94;4954197;29;20038;-64
2022/03/29 04:38:46;;;;;;;201.27;43.90;;;;;;;-145.18;100.00;46633.06;4952709;29;20035;-64
2022/03/29 04:41:12;;;;;;;181.43;38.30;;;;;;;-145.18;100.00;46635.00;4953695;29;20168;-64
2022/03/29 04:43:37;;;;;;;125.70;41.27;;;;;;;-145.18;100.00;46660.41;4935632;29;20038;-64
2022/03/29 04:46:03;;;;;;;96.70;38.13;;;;;;;-145.18;100.00;46635.00;4952239;29;20035;-64
2022/03/29 04:48:29;;;;;;;100.80;39.03;;;;;;;-145.18;100.00;46635.00;4953016;29;20030;-64
2022/03/29 04:50:54;;;;;;;114.60;40.53;;;;;;;-145.18;100.00;46635.00;4953319;29;20109;-64
2022/03/29 04:53:20;;;;;;;112.43;41.20;;;;;;;-145.18;100.00;46633.06;4955623;28;20428;-64
2022/03/29 04:55:45;;;;;;;110.13;40.13;;;;;;;-145.18;100.00;46636.94;4950457;28;20035;-63
2022/03/29 04:58:11;;;;;;;109.20;40.90;;;;;;;-145.18;100.00;46635.00;4949960;29;20118;-64
2022/03/29 05:00:37;;;;;;;96.43;41.20;;;;;;;-145.18;100.00;46635.00;4952386;29;20476;-64
2022/03/29 05:03:03;;;;;;;117.97;39.43;;;;;;;-145.18;100.00;46636.94;4956540;28;20046;-64
2022/03/29 05:05:28;;;;;;;105.50;38.73;;;;;;;-145.18;100.00;46629.13;4972503;28;20272;-64
2022/03/29 05:07:54;;;;;;;122.13;40.30;;;;;;;-145.18;100.00;46633.06;4971148;28;20550;-64
2022/03/29 05:10:19;;;;;;;115.53;38.63;;;;;;;-145.18;100.00;46660.41;4973323;28;20062;-64
2022/03/29 05:12:47;;;;;;;121.43;39.10;;;;;;;-145.18;100.00;46631.09;4972902;28;20105;-63
2022/03/29 05:15:14;;;;;;;128.23;40.37;;;;;;;-145.18;100.00;46631.09;4973101;28;20582;-64
2022/03/29 05:17:42;;;;;;;119.47;40.17;;;;;;;-145.18;100.00;46631.09;4972581;28;20884;-64
2022/03/29 05:20:08;;;;;;;126.53;38.67;;;;;;;-145.18;100.00;46635.00;4972827;28;20280;-64
2022/03/29 05:22:51;;;;;;;162.27;38.27;;;;;;;-145.18;100.00;46635.00;4972718;28;20855;-64
2022/03/29 05:25:22;;;;;;;107.53;37.67;;;;;;;-145.18;100.00;46635.00;4973038;28;20267;-64
2022/03/29 05:27:48;;;;;;;121.57;38.27;;;;;;;-145.18;100.00;46635.00;4971818;28;20280;-64
2022/03/29 05:30:14;;;;;;;131.47;38.87;;;;;;;-145.18;100.00;46633.06;4972991;28;20264;-64
2022/03/29 05:32:40;;;;;;;135.60;38.63;;;;;;;-145.18;100.00;46629.13;4972334;28;20749;-64
2022/03/29 05:35:08;;;;;;;150.30;39.83;;;;;;;-145.18;100.00;46635.00;4972596;28;20038;-64
2022/03/29 05:37:37;;;;;;;126.67;38.57;;;;;;;-145.18;100.00;46633.06;4972473;28;20110;-64
2022/03/29 05:40:04;;;;;;;117.40;38.03;;;;;;;-145.18;100.00;46633.06;4972678;28;20587;-64
2022/03/29 05:42:30;;;;;;;147.40;39.97;;;;;;;-145.18;100.00;46631.09;4971468;28;20288;-64
2022/03/29 05:44:55;;;;;;;194.03;46.10;;;;;;;-145.18;100.00;46627.19;4972513;28;20269;-64
2022/03/29 05:50:06;;;;;;;142.07;42.67;;;;;;;-145.18;100.00;46633.06;4972356;28;20045;-64
2022/03/29 05:52:31;;;;;;;165.27;41.13;;;;;;;-145.18;100.00;46629.13;4970945;28;20288;-64
2022/03/29 05:54:57;;;;;;;153.87;43.47;;;;;;;-145.18;100.00;46633.06;4972277;28;20268;-64
2022/03/29 05:57:23;;;;;;;163.60;40.77;;;;;;;-145.18;100.00;46629.13;4967848;28;20122;-64
2022/03/29 05:59:48;;;;;;;126.33;41.13;;;;;;;-145.18;100.00;46633.06;4960650;28;20405;-65
2022/03/29 06:02:14;;;;;;;157.00;44.30;;;;;;;-145.18;100.00;46633.06;4958727;28;20388;-64
2022/03/29 06:04:39;;;;;;;153.30;43.57;;;;;;;-145.18;100.00;46635.00;4966253;28;20057;-64
2022/03/29 06:07:05;;;;;;;164.13;42.80;;;;;;;-145.18;100.00;46627.19;4966507;28;20043;-64
2022/03/29 06:09:33;;;;;;;148.80;44.70;;;;;;;-145.18;100.00;46627.19;4966550;28;20050;-64
2022/03/29 06:11:59;;;;;;;198.17;42.93;;;;;;;-145.18;100.00;46627.19;4967414;28;20257;-64
2022/03/29 06:14:24;;;;;;;153.93;45.53;;;;;;;-145.18;100.00;46631.09;4967079;28;20272;-64
2022/03/29 06:16:50;;;;;;;159.97;45.50;;;;;;;-145.18;100.00;46631.09;4966495;28;20035;-64
2022/03/29 06:19:15;;;;;;;171.83;45.03;;;;;;;-145.18;100.00;46635.00;4953446;28;20039;-64
2022/03/29 06:21:41;;;;;;;116.77;44.83;;;;;;;-145.18;100.00;46631.09;4951297;28;20495;-64
2022/03/29 06:24:08;;;;;;;142.47;42.37;;;;;;;-145.18;100.00;46627.19;4968642;28;20034;-64
2022/03/29 06:26:39;;;;;;;146.57;41.13;;;;;;;-145.18;100.00;46625.22;4968785;28;20031;-64
2022/03/29 06:29:10;;;;;;;127.93;41.77;;;;;;;-145.18;100.00;46631.09;4968096;28;20317;-64
2022/03/29 06:31:35;;;;;;;113.07;41.73;;;;;;;-145.18;100.00;46633.06;4969265;28;20287;-64
2022/03/29 06:34:01;;;;;;;151.70;44.60;;;;;;;-145.18;100.00;46631.09;4967615;28;20817;-64
2022/03/29 06:36:27;;;;;;;156.07;42.33;;;;;;;-145.18;100.00;46631.09;4966561;28;20518;-64
2022/03/29 06:38:53;;;;;;;152.70;42.67;;;;;;;-145.18;100.00;46633.06;4968189;28;20041;-65
2022/03/29 06:41:19;;;;;;;166.87;41.40;;;;;;;-145.18;100.00;46631.09;4968375;28;20169;-64
2022/03/29 06:43:44;;;;;;;123.73;39.70;;;;;;;-145.18;100.00;46627.19;4965826;28;20301;-65
2022/03/29 06:46:10;;;;;;;146.83;40.77;;;;;;;-145.18;100.00;46629.13;4963440;28;20117;-65
2022/03/29 06:48:36;;;;;;;107.63;37.40;;;;;;;-145.18;100.00;46629.13;4967800;28;21139;-64
2022/03/29 06:51:03;;;;;;;123.40;37.23;;;;;;;-145.18;100.00;46633.06;4969109;28;20039;-65
2022/03/29 06:53:29;;;;;;;170.37;38.10;;;;;;;-145.18;100.00;46629.13;4966353;28;20030;-64
2022/03/29 06:55:54;;;;;;;122.73;38.03;;;;;;;-145.18;100.00;46627.19;4968116;28;20914;-64
2022/03/29 06:58:20;;;;;;;141.37;39.70;;;;;;;-145.18;100.00;46627.19;4950367;28;20047;-65
2022/03/29 07:00:46;;;;;;;144.90;36.90;;;;;;;-145.18;100.00;46625.22;4966910;28;20042;-65
2022/03/29 07:03:11;;;;;;;201.07;39.87;;;;;;;-145.18;100.00;46629.13;4961200;28;20066;-64
2022/03/29 07:05:40;;;;;;;124.77;36.03;;;;;;;-145.18;100.00;46627.19;4946215;29;20043;-64
2022/03/29 07:08:06;;;;;;;136.70;37.37;;;;;;;-145.18;100.00;46631.09;4947408;29;20370;-64
2022/03/29 07:13:15;;;;;;;97.53;34.63;;;;;;;-145.18;100.00;46631.09;4947831;29;20304;-64
2022/03/29 07:15:41;;;;;;;144.70;35.77;;;;;;;-145.18;100.00;46627.19;4947404;29;20281;-64
2022/03/29 07:18:06;;;;;;;107.57;36.23;;;;;;;-145.18;100.00;46627.19;4947643;29;20023;-64
2022/03/29 07:20:32;;;;;;;136.33;37.17;;;;;;;-145.18;100.00;46631.09;4949146;28;20071;-64
2022/03/29 07:22:57;;;;;;;101.20;36.13;;;;;;;-145.18;100.00;46625.22;4950138;29;20626;-64
2022/03/29 07:25:25;;;;;;;97.37;34.43;;;;;;;-145.18;100.00;46627.19;4952031;29;20043;-64
2022/03/29 07:27:53;;;;;;;82.50;32.33;;;;;;;-145.18;100.00;46625.22;4950649;29;20043;-64
2022/03/29 07:30:19;;;;;;;96.27;33.63;;;;;;;-145.18;100.00;46625.22;4951133;29;20265;-65
2022/03/29 07:32:47;;;;;;;93.90;37.03;;;;;;;-145.18;100.00;46621.31;4939888;29;20325;-64
2022/03/29 07:35:14;;;;;;;110.70;36.07;;;;;;;-145.18;100.00;46621.31;4951235;29;20429;-64
2022/03/29 07:37:40;;;;;;;104.83;37.27;;;;;;;-145.18;100.00;46621.31;4952062;29;20281;-64
2022/03/29 07:40:08;;;;;;;104.77;37.73;;;;;;;-145.18;100.00;46621.31;4951703;29;20308;-64
2022/03/29 07:42:35;;;;;;;109.63;37.43;;;;;;;-145.18;100.00;46621.31;4951838;29;20321;-64
2022/03/29 07:45:03;;;;;;;113.00;38.33;;;;;;;-145.18;100.00;46623.28;4951412;29;21025;-64
2022/03/29 07:47:29;;;;;;;108.37;40.07;;;;;;;-145.18;100.00;46621.31;4950447;29;20296;-64
2022/03/29 07:49:55;;;;;;;108.97;41.20;;;;;;;-145.18;100.00;46623.28;4951025;28;20320;-65
2022/03/29 07:52:21;;;;;;;105.43;40.07;;;;;;;-145.18;100.00;46621.31;4952126;29;20642;-64
2022/03/29 07:54:46;;;;;;;97.10;37.83;;;;;;;-145.18;100.00;46621.31;4951283;29;20074;-64
2022/03/29 07:57:12;;;;;;;96.47;37.87;;;;;;;-145.18;100.00;46623.28;4951789;29;20035;-64
2022/03/29 07:59:38;;;;;;;94.97;39.30;;;;;;;-145.18;100.00;46623.28;4951593;29;20055;-64
2022/03/29 08:02:07;;;;;;;103.40;37.07;;;;;;;-145.18;100.00;46621.31;4950576;28;20043;-64
2022/03/29 08:04:33;;;;;;;91.33;37.17;;;;;;;-145.18;100.00;46625.22;4961736;28;20054;-64
2022/03/29 08:06:59;;;;;;;92.43;35.90;;;;;;;-145.18;100.00;46623.28;4929362;28;20305;-64
2022/03/29 08:09:27;;;;;;;89.27;35.80;;;;;;;-145.18;100.00;46621.31;4946960;28;20044;-64
2022/03/29 08:11:55;;;;;;;86.57;33.43;;;;;;;-145.18;100.00;46621.31;4958535;28;20291;-64
2022/03/29 08:14:21;;;;;;;85.80;36.13;;;;;;;-145.18;100.00;46623.28;4950133;28;20281;-64
2022/03/29 08:16:46;;;;;;;94.10;38.03;;;;;;;-145.18;100.00;46625.22;4934211;28;20260;-64
2022/03/29 08:19:11;;;;;;;80.00;32.80;;;;;;;-145.18;100.00;46625.22;4953785;28;20273;-64
2022/03/29 08:21:49;;;;;;;86.07;36.57;;;;;;;-145.18;100.00;46623.28;4947808;28;20039;-64
2022/03/29 08:24:23;;;;;;;82.97;33.30;;;;;;;-145.18;100.00;46623.28;4953673;28;20432;-64
2022/03/29 08:26:51;;;;;;;88.70;35.57;;;;;;;-145.18;100.00;46623.28;4950484;28;20295;-64
2022/03/29 08:29:17;;;;;;;82.67;36.27;;;;;;;-145.18;100.00;46621.31;4952910;28;20288;-64
2022/03/29 08:31:47;;;;;;;86.87;37.47;;;;;;;-145.18;100.00;46623.28;4950696;28;20397;-64
2022/03/29 08:34:13;;;;;;;81.27;33.67;;;;;;;-145.18;100.00;46625.22;4947487;28;20748;-64
2022/03/29 08:36:39;;;;;;;86.90;36.87;;;;;;;-145.18;100.00;46627.19;4950641;29;20350;-64
2022/03/29 08:39:06;;;;;;;76.53;34.23;;;;;;;-145.18;100.00;46625.22;4950144;29;20293;-64
2022/03/29 08:41:42;;;;;;;78.37;32.17;;;;;;;-145.18;100.00;46625.22;4950819;29;20046;-64
2022/03/29 08:44:08;;;;;;;71.67;30.90;;;;;;;-145.18;100.00;46625.22;4949187;28;20288;-64
2022/03/29 08:46:38;;;;;;;69.93;32.67;;;;;;;-145.18;100.00;46623.28;4928995;28;20285;-64
2022/03/29 08:49:06;;;;;;;64.47;30.00;;;;;;;-145.18;100.00;46627.19;4951686;28;20550;-64
2022/03/29 08:51:32;;;;;;;64.57;30.20;;;;;;;-145.18;100.00;46621.31;4951762;28;20269;-64
2022/03/29 08:53:57;;;;;;;68.90;32.00;;;;;;;-145.18;100.00;46621.31;4951812;28;20280;-64
2022/03/29 08:56:23;;;;;;;68.63;32.27;;;;;;;-145.18;100.00;46625.22;4950067;29;20039;-64
2022/03/29 08:58:49;;;;;;;72.90;32.67;;;;;;;-145.18;100.00;46625.22;4949983;28;20054;-64
2022/03/29 09:01:19;;;;;;;66.83;32.97;;;;;;;-145.18;100.00;46627.19;4950788;29;20031;-64
2022/03/29 09:03:45;;;;;;;67.60;31.23;;;;;;;-145.18;100.00;46625.22;4957903;28;20745;-64
2022/03/29 09:06:11;;;;;;;69.00;31.60;;;;;;;-145.18;100.00;46623.28;4969509;28;20373;-64
2022/03/29 09:08:46;;;;;;;79.67;33.37;;;;;;;-145.18;100.00;46621.31;4969223;28;20269;-64
2022/03/29 09:11:15;;;;;;;74.25;31.48;;;;;;;-145.18;100.00;46623.28;4967142;28;20114;-64
2022/03/29 09:13:41;;;;;;;71.43;32.27;;;;;;;-145.18;100.00;46631.09;4951995;28;20034;-64
2022/03/29 09:16:10;;;;;;;73.90;32.27;;;;;;;-145.18;100.00;46625.22;4968397;28;20284;-64
2022/03/29 09:18:37;;;;;;;81.40;36.10;;;;;;;-145.18;100.00;46625.22;4968871;28;20034;-64
2022/03/29 09:21:12;;;;;;;71.93;33.10;;;;;;;-145.18;100.00;46623.28;4968819;28;20283;-64
2022/03/29 09:23:39;;;;;;;77.90;34.42;;;;;;;-145.18;100.00;46627.19;4966323;28;20277;-64
2022/03/29 09:26:06;;;;;;;70.17;32.50;;;;;;;-145.18;100.00;46627.19;4968423;28;20041;-64
2022/03/29 09:28:35;;;;;;;70.67;33.83;;;;;;;-145.18;100.00;46623.28;4967680;28;20273;-64
2022/03/29 09:31:01;;;;;;;74.07;34.20;;;;;;;-145.18;100.00;46623.28;4968968;28;20357;-64
2022/03/29 09:33:31;;;;;;;77.27;33.50;;;;;;;-145.18;100.00;46619.38;4971522;28;20272;-64
2022/03/29 09:36:04;;;;;;;68.47;31.63;;;;;;;-145.18;100.00;46625.22;4968448;28;20069;-64
2022/03/29 09:38:59;;;;;;;62.73;29.43;;;;;;;-145.18;100.00;46625.22;4938955;28;20725;-64
2022/03/29 09:41:28;;;;;;;70.00;33.73;;;;;;;-145.18;100.00;46623.28;4968303;28;20626;-64
2022/03/29 09:44:07;;;;;;;70.43;33.40;;;;;;;-145.18;100.00;46625.22;4967760;28;20749;-64
2022/03/29 09:46:53;;;;;;;68.83;31.40;;;;;;;-145.18;100.00;46621.31;4966625;28;20360;-64
2022/03/29 09:49:20;;;;;;;67.67;33.03;;;;;;;-145.18;100.00;46625.22;4968161;28;20276;-65
2022/03/29 09:51:45;;;;;;;64.07;31.43;;;;;;;-145.18;100.00;46625.22;4967924;28;20057;-64
2022/03/29 09:54:11;;;;;;;70.57;32.17;;;;;;;-145.18;100.00;46629.13;4967842;28;21049;-64
2022/03/29 09:56:36;;;;;;;69.20;33.33;;;;;;;-145.18;100.00;46629.13;4968610;28;20043;-64
2022/03/29 09:59:06;;;;;;;68.30;32.77;;;;;;;-145.18;100.00;46625.22;4968958;28;20039;-64
2022/03/29 10:01:33;;;;;;;69.80;33.07;;;;;;;-145.18;100.00;46625.22;4968004;28;20030;-64
2022/03/29 10:04:01;;;;;;;67.17;32.30;;;;;;;-145.18;100.00;46623.28;4967660;28;20669;-64
2022/03/29 10:06:30;;;;;;;68.50;34.33;;;;;;;-145.18;100.00;46629.13;4969086;28;20307;-64
2022/03/29 10:11:43;;;;;;;70.27;32.87;;;;;;;-145.18;100.00;46629.13;4967419;28;20673;-64
2022/03/29 10:14:17;;;;;;;67.47;33.63;;;;;;;-145.18;100.00;46629.13;4968143;28;21147;-64
2022/03/29 10:16:44;;;;;;;65.93;33.47;;;;;;;-145.18;100.00;46625.22;4969131;28;20283;-64
2022/03/29 10:19:11;;;;;;;66.43;33.30;;;;;;;-145.18;100.00;46631.09;4966501;28;20806;-65
2022/03/29 10:21:37;;;;;;;69.53;31.50;;;;;;;-145.18;100.00;46629.13;4968716;28;20351;-64
2022/03/29 10:24:02;;;;;;;66.80;32.03;;;;;;;-145.18;100.00;46631.09;4967187;28;20277;-64
2022/03/29 10:26:29;;;;;;;65.70;33.67;;;;;;;-145.18;100.00;46629.13;4968092;28;20305;-65
2022/03/29 10:28:55;;;;;;;71.10;32.83;;;;;;;-145.18;100.00;46627.19;4968474;28;20099;-64
2022/03/29 10:31:39;;;;;;;66.37;31.47;;;;;;;-145.18;100.00;46631.09;4953532;28;20280;-66
2022/03/29 10:34:22;;;;;;;65.10;32.20;;;;;;;-145.18;100.00;46631.09;4966616;28;20332;-64
2022/03/29 10:37:09;;;;;;;65.43;33.53;;;;;;;-145.18;100.00;46638.91;4966675;28;20344;-64
2022/03/29 10:39:45;;;;;;;62.43;32.20;;;;;;;-145.18;100.00;46633.06;4964325;28;20261;-64
2022/03/29 10:42:38;;;;;;;67.97;31.80;;;;;;;-145.18;100.00;46631.09;4929735;28;20774;-65
2022/03/29 10:45:12;;;;;;;65.47;30.37;;;;;;;-145.18;100.00;46629.13;4951450;28;20272;-64
2022/03/29 10:47:39;;;;;;;57.07;28.53;;;;;;;-145.18;100.00;46635.00;4945521;28;20289;-64
2022/03/29 10:50:07;;;;;;;62.07;30.93;;;;;;;-145.18;100.00;46635.00;4943609;28;20273;-64
2022/03/29 10:52:49;;;;;;;67.33;32.00;;;;;;;-145.18;100.00;46631.09;4956754;28;20268;-64
2022/03/29 10:55:28;;;;;;;67.20;33.43;;;;;;;-145.18;100.00;46635.00;4968305;28;20361;-64
2022/03/29 10:58:14;;;;;;;71.90;31.73;;;;;;;-145.18;100.00;46636.94;4951662;28;20717;-64
2022/03/29 11:00:44;;;;;;;66.18;30.02;;;;;;;-145.18;100.00;46635.00;4972116;28;20781;-64
2022/03/29 11:03:20;;;;;;;67.87;32.77;;;;;;;-145.18;100.00;46636.94;4970078;28;20444;-64